Time;durP1;ratioP1;P1;durP2;ratioP2;P2;SDS_P1;SDS_P2;PMS_P1;PMS_P2;Temp;Humidity;BMP_temperature;BMP_pressure;BME280_temperature;BME280_humidity;BME280_pressure;Samples;Min_cycle;Max_cycle;Signal;HPM_P1;HPM_P2
2022/01/31 00:00:49;;;;;;;151.23;143.10;;;5.30;99.90;;;;;;4412798;32;20193;-61
2022/01/31 00:03:17;;;;;;;173.83;165.00;;;5.40;99.90;;;;;;4415134;32;20216;-61
2022/01/31 00:05:48;;;;;;;153.33;144.63;;;5.30;99.90;;;;;;4414268;32;20594;-63
2022/01/31 00:08:23;;;;;;;154.83;147.33;;;5.40;99.90;;;;;;4412954;32;20152;-61
2022/01/31 00:10:52;;;;;;;161.47;153.90;;;5.20;99.90;;;;;;4415245;32;20136;-61
2022/01/31 00:13:33;;;;;;;161.80;153.97;;;5.20;99.90;;;;;;4413683;32;20560;-61
2022/01/31 00:16:01;;;;;;;174.97;166.63;;;5.20;99.90;;;;;;4415749;32;20168;-61
2022/01/31 00:18:30;;;;;;;174.03;165.23;;;5.20;99.90;;;;;;4407548;32;20191;-64
2022/01/31 00:21:06;;;;;;;168.13;159.63;;;5.20;99.90;;;;;;4414654;32;20195;-61
2022/01/31 00:23:40;;;;;;;182.53;173.27;;;5.20;99.90;;;;;;4415066;32;20190;-61
2022/01/31 00:26:14;;;;;;;190.07;179.90;;;5.20;99.90;;;;;;4413293;32;20182;-61
2022/01/31 00:28:58;;;;;;;194.80;185.33;;;5.20;99.90;;;;;;4411024;32;20273;-61
2022/01/31 00:31:30;;;;;;;203.03;193.07;;;5.10;99.90;;;;;;4411759;32;20215;-62
2022/01/31 00:34:00;;;;;;;183.07;174.20;;;5.00;99.90;;;;;;4414907;32;20194;-65
2022/01/31 00:36:37;;;;;;;192.87;183.47;;;5.10;99.90;;;;;;4414574;32;20212;-63
2022/01/31 00:39:08;;;;;;;197.87;187.83;;;5.00;99.90;;;;;;4412820;32;20156;-63
2022/01/31 00:41:38;;;;;;;197.03;187.53;;;5.00;99.90;;;;;;4413860;32;20156;-62
2022/01/31 00:44:16;;;;;;;204.37;194.00;;;5.00;99.90;;;;;;4414129;32;20152;-62
2022/01/31 00:46:50;;;;;;;202.60;192.17;;;5.00;99.90;;;;;;4413551;32;20150;-66
2022/01/31 00:49:34;;;;;;;224.20;213.03;;;5.00;99.90;;;;;;4412004;32;20265;-65
2022/01/31 00:52:02;;;;;;;191.77;182.03;;;4.90;99.90;;;;;;4415496;32;20178;-63
2022/01/31 00:54:32;;;;;;;231.57;220.10;;;4.90;99.90;;;;;;4409947;32;20147;-62
2022/01/31 00:57:10;;;;;;;220.43;208.83;;;4.90;99.90;;;;;;4411899;32;20151;-62
2022/01/31 00:59:37;;;;;;;236.57;225.40;;;4.90;99.90;;;;;;4412621;32;20210;-63
2022/01/31 01:02:07;;;;;;;237.13;225.03;;;4.90;99.90;;;;;;4413691;32;20167;-62
2022/01/31 01:04:34;;;;;;;250.90;239.07;;;4.90;99.90;;;;;;4413143;32;20167;-62
2022/01/31 01:07:03;;;;;;;254.10;241.80;;;5.00;99.90;;;;;;4415759;32;20477;-62
2022/01/31 01:09:37;;;;;;;253.00;240.80;;;5.00;99.90;;;;;;4413438;32;20167;-62
2022/01/31 01:12:12;;;;;;;258.30;245.60;;;4.90;99.90;;;;;;4415516;32;20496;-62
2022/01/31 01:14:41;;;;;;;276.00;262.60;;;5.00;99.90;;;;;;4415999;32;20163;-62
2022/01/31 01:17:16;;;;;;;267.27;253.97;;;4.90;99.90;;;;;;4409322;32;20616;-62
2022/01/31 01:19:47;;;;;;;259.27;247.33;;;4.90;99.90;;;;;;4413202;32;20214;-62
2022/01/31 01:22:14;;;;;;;252.10;240.23;;;5.00;99.90;;;;;;4414399;32;20140;-62
2022/01/31 01:24:48;;;;;;;280.50;266.60;;;5.00;99.90;;;;;;4414839;32;20572;-63
2022/01/31 01:27:22;;;;;;;273.73;260.87;;;5.00;99.90;;;;;;4412878;32;20241;-62
2022/01/31 01:29:55;;;;;;;264.70;252.23;;;5.00;99.90;;;;;;4414517;32;20166;-62
2022/01/31 01:32:34;;;;;;;302.47;286.80;;;4.90;99.90;;;;;;4413953;32;20136;-62
2022/01/31 01:35:05;;;;;;;279.47;265.63;;;4.90;99.90;;;;;;4413844;32;20164;-63
2022/01/31 01:37:32;;;;;;;293.50;279.53;;;4.90;99.90;;;;;;4409321;32;20658;-62
2022/01/31 01:40:10;;;;;;;295.73;281.77;;;5.00;99.90;;;;;;4412548;32;20208;-62
2022/01/31 01:42:49;;;;;;;299.60;285.20;;;5.00;99.90;;;;;;4414180;32;20178;-62
2022/01/31 01:45:22;;;;;;;299.83;285.97;;;5.00;99.90;;;;;;4413815;32;20159;-61
2022/01/31 01:47:55;;;;;;;302.60;288.23;;;5.00;99.90;;;;;;4414807;32;20218;-61
2022/01/31 01:50:26;;;;;;;300.60;286.80;;;5.00;99.90;;;;;;4416020;32;20749;-61
2022/01/31 01:52:59;;;;;;;312.30;297.30;;;5.10;99.90;;;;;;4410869;32;20156;-61
2022/01/31 01:55:37;;;;;;;317.87;302.73;;;5.10;99.90;;;;;;4414265;32;20173;-61
2022/01/31 01:58:12;;;;;;;326.67;311.03;;;5.10;99.90;;;;;;4415104;32;20580;-61
2022/01/31 02:00:50;;;;;;;339.33;322.80;;;5.10;99.90;;;;;;4413642;32;20155;-61
2022/01/31 02:03:27;;;;;;;342.27;326.10;;;5.10;99.90;;;;;;4413776;32;20289;-61
2022/01/31 02:06:04;;;;;;;345.37;328.37;;;5.10;99.90;;;;;;4407312;32;20205;-61
2022/01/31 02:08:40;;;;;;;364.53;347.83;;;5.10;99.90;;;;;;4410229;32;20520;-62
2022/01/31 02:11:13;;;;;;;369.90;353.20;;;5.20;99.90;;;;;;4411520;32;20174;-61
2022/01/31 02:13:44;;;;;;;370.90;353.60;;;5.20;99.90;;;;;;4414090;32;20560;-62
2022/01/31 02:16:18;;;;;;;406.37;387.93;;;5.30;99.90;;;;;;4411141;32;20219;-61
2022/01/31 02:18:49;;;;;;;386.93;369.00;;;5.30;99.90;;;;;;4410137;32;20230;-61
2022/01/31 02:21:28;;;;;;;410.20;391.57;;;5.30;99.90;;;;;;4410283;32;20166;-61
2022/01/31 02:24:02;;;;;;;391.37;373.13;;;5.40;99.90;;;;;;4407121;32;20414;-61
2022/01/31 02:26:34;;;;;;;413.50;394.27;;;5.50;99.90;;;;;;4413017;32;20148;-61
2022/01/31 02:29:01;;;;;;;400.53;381.47;;;5.50;99.90;;;;;;4412915;32;20143;-60
2022/01/31 02:31:31;;;;;;;405.13;385.87;;;5.60;99.90;;;;;;4413420;32;20187;-61
2022/01/31 02:34:00;;;;;;;411.50;391.57;;;5.60;99.90;;;;;;4413876;32;20183;-60
2022/01/31 02:36:39;;;;;;;428.47;408.70;;;5.60;99.90;;;;;;4412330;32;20136;-61
2022/01/31 02:39:09;;;;;;;398.67;379.80;;;5.60;99.90;;;;;;4412598;32;20179;-60
2022/01/31 02:41:52;;;;;;;409.17;389.47;;;5.70;99.90;;;;;;4414068;32;20484;-60
2022/01/31 02:44:24;;;;;;;417.03;396.53;;;5.80;99.90;;;;;;4409319;32;20162;-61
2022/01/31 02:46:59;;;;;;;417.17;396.20;;;5.90;99.90;;;;;;4409949;32;20143;-62
2022/01/31 02:49:53;;;;;;;447.63;425.73;;;5.90;99.90;;;;;;4412165;32;20246;-62
2022/01/31 02:52:25;;;;;;;408.00;387.97;;;6.00;99.90;;;;;;4410799;32;20132;-62
2022/01/31 02:54:55;;;;;;;428.33;408.03;;;6.10;99.90;;;;;;4412956;32;20215;-62
2022/01/31 02:57:29;;;;;;;409.20;389.00;;;6.20;99.90;;;;;;4412661;32;20218;-62
2022/01/31 02:59:59;;;;;;;417.90;397.23;;;6.20;99.90;;;;;;4408334;32;20138;-62
2022/01/31 03:02:33;;;;;;;388.03;369.90;;;6.20;99.90;;;;;;4358854;32;1625509;-62
2022/01/31 03:05:02;;;;;;;396.63;377.20;;;6.20;99.90;;;;;;4412132;32;20174;-62
2022/01/31 03:07:38;;;;;;;374.03;356.37;;;6.20;99.90;;;;;;4410537;32;20248;-62
2022/01/31 03:10:14;;;;;;;370.43;353.23;;;6.20;99.90;;;;;;4410162;32;20214;-62
2022/01/31 03:12:54;;;;;;;366.07;349.20;;;6.20;99.90;;;;;;4407439;32;20220;-62
2022/01/31 03:15:29;;;;;;;347.57;331.33;;;6.20;99.90;;;;;;4415777;32;20208;-62
2022/01/31 03:18:05;;;;;;;347.33;331.60;;;6.30;99.90;;;;;;4411592;32;20147;-61
2022/01/31 03:20:40;;;;;;;331.17;316.07;;;6.30;99.90;;;;;;4408224;32;20174;-62
2022/01/31 03:23:09;;;;;;;319.67;304.43;;;6.30;99.90;;;;;;4396965;32;20156;-62
2022/01/31 03:25:41;;;;;;;334.80;319.60;;;6.40;99.90;;;;;;4397693;32;20164;-62
2022/01/31 03:28:08;;;;;;;346.53;330.90;;;6.40;99.90;;;;;;4396049;32;20205;-62
2022/01/31 03:30:42;;;;;;;335.77;320.43;;;6.50;99.90;;;;;;4397234;32;20175;-62
2022/01/31 03:33:09;;;;;;;334.30;319.43;;;6.50;99.90;;;;;;4396928;32;20261;-62
2022/01/31 03:35:45;;;;;;;312.93;299.27;;;6.50;99.90;;;;;;4398157;32;20153;-61
2022/01/31 03:38:13;;;;;;;302.00;287.70;;;6.50;99.90;;;;;;4395187;32;20148;-61
2022/01/31 03:40:58;;;;;;;311.47;297.90;;;6.60;99.90;;;;;;4397412;32;20174;-61
2022/01/31 03:43:33;;;;;;;307.03;293.07;;;6.50;99.90;;;;;;4391980;32;20257;-61
2022/01/31 03:46:00;;;;;;;299.30;285.87;;;6.60;99.90;;;;;;4397390;32;20216;-61
2022/01/31 03:48:28;;;;;;;317.10;302.40;;;6.50;99.90;;;;;;4400725;32;20272;-61
2022/01/31 03:51:00;;;;;;;307.17;293.10;;;6.50;99.90;;;;;;4399961;32;20155;-61
2022/01/31 03:53:32;;;;;;;283.30;270.43;;;6.60;99.90;;;;;;4398042;32;20148;-61
2022/01/31 03:56:03;;;;;;;270.67;258.57;;;6.50;99.90;;;;;;4396975;32;20180;-61
2022/01/31 03:58:34;;;;;;;288.47;275.47;;;6.60;99.90;;;;;;4398608;32;20168;-61
2022/01/31 04:01:01;;;;;;;287.87;274.07;;;6.50;99.90;;;;;;4414718;32;20497;-61
2022/01/31 04:03:34;;;;;;;289.27;275.43;;;6.50;99.90;;;;;;4412361;32;20190;-61
2022/01/31 04:06:09;;;;;;;277.50;265.10;;;6.50;99.90;;;;;;4411200;32;20210;-61
2022/01/31 04:08:45;;;;;;;273.50;261.00;;;6.50;99.90;;;;;;4410861;32;20193;-60
2022/01/31 04:11:29;;;;;;;264.27;251.87;;;6.40;99.90;;;;;;4393625;32;21225;-60
2022/01/31 04:14:14;;;;;;;222.23;211.70;;;6.50;99.90;;;;;;4408778;32;20155;-62
2022/01/31 04:16:49;;;;;;;233.23;222.23;;;6.60;99.90;;;;;;4412068;32;20199;-60
2022/01/31 04:19:22;;;;;;;222.17;211.53;;;6.50;99.90;;;;;;4408484;32;20155;-63
2022/01/31 04:21:54;;;;;;;233.67;223.03;;;6.50;99.90;;;;;;4412394;32;20212;-62
2022/01/31 04:24:31;;;;;;;228.67;218.43;;;6.50;99.90;;;;;;4411941;32;20622;-60
2022/01/31 04:27:05;;;;;;;197.30;188.07;;;6.60;99.90;;;;;;4411053;32;20179;-60
2022/01/31 04:29:40;;;;;;;193.83;184.17;;;6.60;99.90;;;;;;4407103;32;20207;-61
2022/01/31 04:32:12;;;;;;;188.43;179.67;;;6.60;99.90;;;;;;4397091;32;20253;-60
2022/01/31 04:34:41;;;;;;;177.20;168.83;;;6.60;99.90;;;;;;4398561;32;20492;-60
2022/01/31 04:37:10;;;;;;;167.87;159.67;;;6.70;99.90;;;;;;4397949;32;20252;-60
2022/01/31 04:39:47;;;;;;;189.87;180.90;;;6.70;99.90;;;;;;4397466;32;20164;-61
2022/01/31 04:42:19;;;;;;;168.43;160.47;;;6.70;99.90;;;;;;4389526;32;20163;-62
2022/01/31 04:45:05;;;;;;;172.47;164.23;;;6.60;99.90;;;;;;4400085;32;20157;-62
2022/01/31 04:47:32;;;;;;;166.03;157.90;;;6.60;99.90;;;;;;4398772;32;20163;-62
2022/01/31 04:49:58;;;;;;;164.50;156.47;;;6.60;99.90;;;;;;4399805;32;20222;-62
2022/01/31 04:52:41;;;;;;;176.70;168.43;;;6.70;99.90;;;;;;4398803;32;20171;-62
2022/01/31 04:55:18;;;;;;;160.83;152.90;;;6.70;99.90;;;;;;4393176;32;20487;-62
2022/01/31 04:57:49;;;;;;;175.00;166.47;;;6.70;99.90;;;;;;4401364;32;20163;-62
2022/01/31 05:00:27;;;;;;;167.87;159.20;;;6.70;99.90;;;;;;4399329;32;20163;-62
2022/01/31 05:05:59;;;;;;;187.43;178.50;;;6.50;99.90;;;;;;4398830;32;20218;-62
2022/01/31 05:08:39;;;;;;;210.00;200.03;;;6.50;99.90;;;;;;4400568;32;20602;-61
2022/01/31 05:11:24;;;;;;;221.90;211.77;;;6.30;99.90;;;;;;4400634;32;20223;-62
2022/01/31 05:13:51;;;;;;;214.83;205.10;;;6.30;99.90;;;;;;4413670;32;20155;-60
2022/01/31 05:16:22;;;;;;;246.43;235.43;;;5.90;99.90;;;;;;4417109;32;20186;-62
2022/01/31 05:18:53;;;;;;;242.00;231.00;;;5.50;99.90;;;;;;4398912;32;20229;-62
2022/01/31 05:21:22;;;;;;;261.63;250.07;;;5.30;99.90;;;;;;4399996;32;20148;-62
2022/01/31 05:23:49;;;;;;;263.37;252.47;;;5.10;99.90;;;;;;4400447;32;20191;-62
2022/01/31 05:26:20;;;;;;;272.40;260.47;;;5.10;99.90;;;;;;4399985;32;20173;-60
2022/01/31 05:28:49;;;;;;;287.47;274.80;;;5.00;99.90;;;;;;4404129;32;20172;-62
2022/01/31 05:31:27;;;;;;;296.07;283.17;;;5.00;99.90;;;;;;4398125;32;20159;-60
2022/01/31 05:33:57;;;;;;;275.50;263.13;;;5.00;99.90;;;;;;4398417;32;20171;-63
2022/01/31 05:36:27;;;;;;;293.13;279.90;;;5.00;99.90;;;;;;4401087;32;20224;-60
2022/01/31 05:38:57;;;;;;;287.20;274.47;;;5.00;99.90;;;;;;4392248;32;20496;-59
2022/01/31 05:41:36;;;;;;;317.93;302.97;;;5.10;99.90;;;;;;4399963;32;20152;-61
2022/01/31 05:44:05;;;;;;;299.10;284.47;;;5.00;99.90;;;;;;4391709;32;20484;-60
2022/01/31 05:46:36;;;;;;;312.83;297.33;;;5.10;99.90;;;;;;4398789;32;20151;-61
2022/01/31 05:49:08;;;;;;;332.33;316.67;;;5.10;99.90;;;;;;4400584;32;20175;-61
2022/01/31 05:51:50;;;;;;;308.70;293.33;;;5.20;99.90;;;;;;4391262;32;20178;-61
2022/01/31 05:54:17;;;;;;;311.03;296.27;;;5.30;99.90;;;;;;4384469;32;20208;-61
2022/01/31 05:56:47;;;;;;;308.63;293.37;;;5.30;99.90;;;;;;4396676;32;20180;-60
2022/01/31 05:59:14;;;;;;;306.37;291.87;;;5.30;99.90;;;;;;4397356;32;20225;-61
2022/01/31 06:01:43;;;;;;;349.20;332.47;;;5.50;99.90;;;;;;4400058;32;20172;-63
2022/01/31 06:04:13;;;;;;;299.17;285.10;;;5.50;99.90;;;;;;4382919;32;20171;-62
2022/01/31 06:06:44;;;;;;;318.23;304.00;;;5.50;99.90;;;;;;4384835;32;20156;-60
2022/01/31 06:09:12;;;;;;;307.30;292.00;;;5.60;99.90;;;;;;4383905;32;20214;-64
2022/01/31 06:11:49;;;;;;;320.93;306.20;;;5.50;99.90;;;;;;4386193;32;20144;-65
2022/01/31 06:14:20;;;;;;;304.67;290.73;;;5.50;99.90;;;;;;4382968;32;20258;-60
2022/01/31 06:16:47;;;;;;;287.33;274.50;;;5.50;99.90;;;;;;4381672;32;20146;-61
2022/01/31 06:19:14;;;;;;;298.07;283.83;;;5.50;99.90;;;;;;4378611;32;20585;-63
2022/01/31 06:21:42;;;;;;;293.47;279.73;;;5.40;99.90;;;;;;4385655;32;20500;-61
2022/01/31 06:24:25;;;;;;;306.83;292.73;;;5.40;99.90;;;;;;4382002;32;20203;-64
2022/01/31 06:27:05;;;;;;;310.77;296.03;;;5.60;99.90;;;;;;4380728;32;20516;-62
2022/01/31 06:29:38;;;;;;;301.23;286.77;;;5.50;99.90;;;;;;4380978;32;20640;-61
2022/01/31 06:32:18;;;;;;;;;;;;;;;;;;;;;
2022/01/31 06:34:53;;;;;;;297.83;283.63;;;5.40;99.90;;;;;;4379364;32;20190;-62
2022/01/31 06:37:20;;;;;;;289.23;276.00;;;5.40;99.90;;;;;;4385188;32;20251;-60
2022/01/31 06:39:47;;;;;;;307.07;292.90;;;5.40;99.90;;;;;;4387004;32;20156;-61
2022/01/31 06:42:15;;;;;;;317.97;302.63;;;5.40;99.90;;;;;;4381295;32;20171;-61
2022/01/31 06:45:05;;;;;;;299.50;284.93;;;5.50;99.90;;;;;;4394607;32;20156;-63
2022/01/31 06:47:37;;;;;;;282.90;268.90;;;5.50;99.90;;;;;;4389747;32;20275;-66
2022/01/31 06:50:10;;;;;;;284.63;270.80;;;5.40;99.90;;;;;;4384169;32;20152;-63
2022/01/31 06:52:51;;;;;;;320.53;304.67;;;5.50;99.90;;;;;;4388544;32;20148;-61
2022/01/31 06:55:28;;;;;;;280.00;266.93;;;5.50;99.90;;;;;;4384009;32;20211;-62
2022/01/31 06:58:12;;;;;;;287.33;274.23;;;5.40;99.90;;;;;;4386447;32;20157;-61
2022/01/31 07:00:40;;;;;;;291.07;278.23;;;5.50;99.90;;;;;;4389195;32;20552;-61
2022/01/31 07:03:27;;;;;;;283.77;271.07;;;5.60;99.90;;;;;;4399966;32;20201;-62
2022/01/31 07:06:02;;;;;;;274.97;261.67;;;5.50;99.90;;;;;;4393206;32;20179;-62
2022/01/31 07:08:32;;;;;;;273.17;261.20;;;5.50;99.90;;;;;;4395706;32;20228;-62
2022/01/31 07:11:05;;;;;;;288.53;275.77;;;5.40;99.90;;;;;;4392752;32;20157;-62
2022/01/31 07:13:47;;;;;;;281.53;267.80;;;5.40;99.90;;;;;;4395745;32;20152;-62
2022/01/31 07:16:33;;;;;;;;;;;;;;;;;;;;;
2022/01/31 07:19:07;;;;;;;275.23;262.63;;;5.40;99.90;;;;;;4392242;32;20188;-61
2022/01/31 07:24:24;;;;;;;305.03;291.40;;;5.40;99.90;;;;;;4393034;32;20198;-66
2022/01/31 07:26:54;;;;;;;283.63;269.67;;;5.40;99.90;;;;;;4398348;32;20564;-61
2022/01/31 07:29:24;;;;;;;273.23;260.97;;;5.40;99.90;;;;;;4391968;32;20191;-61
2022/01/31 07:31:55;;;;;;;314.83;300.10;;;5.40;99.90;;;;;;4381337;32;20179;-63
2022/01/31 07:34:29;;;;;;;290.03;276.00;;;5.40;99.90;;;;;;4393300;32;20170;-64
2022/01/31 07:36:58;;;;;;;268.93;255.17;;;5.40;99.90;;;;;;4387040;32;20178;-61
2022/01/31 07:39:27;;;;;;;281.17;267.40;;;5.40;99.90;;;;;;4387968;32;20160;-60
2022/01/31 07:42:00;;;;;;;289.17;274.20;;;5.40;99.90;;;;;;4384998;32;20619;-61
2022/01/31 07:44:36;;;;;;;276.63;263.57;;;5.40;99.90;;;;;;4392821;32;20592;-64
2022/01/31 07:47:07;;;;;;;276.13;261.73;;;5.40;99.90;;;;;;4395511;32;20220;-66
2022/01/31 07:49:36;;;;;;;294.10;279.40;;;5.50;99.90;;;;;;4393360;32;20167;-65
2022/01/31 07:52:06;;;;;;;301.33;286.17;;;5.50;99.90;;;;;;4385326;32;20534;-63
2022/01/31 07:54:33;;;;;;;316.87;300.10;;;5.50;99.90;;;;;;4398068;32;20145;-65
2022/01/31 07:57:03;;;;;;;290.53;276.37;;;5.60;99.90;;;;;;4388416;32;20522;-62
2022/01/31 07:59:31;;;;;;;318.80;302.10;;;5.50;99.90;;;;;;4394266;32;20623;-60
2022/01/31 08:02:11;;;;;;;313.27;297.90;;;5.60;99.90;;;;;;4388046;32;20199;-63
2022/01/31 08:04:44;;;;;;;275.30;261.60;;;5.60;99.90;;;;;;4397698;32;20164;-61
2022/01/31 08:07:20;;;;;;;272.93;259.17;;;5.60;99.90;;;;;;4402790;32;20496;-62
2022/01/31 08:09:47;;;;;;;284.00;270.63;;;5.60;99.90;;;;;;4392086;32;20294;-61
2022/01/31 08:12:20;;;;;;;272.80;259.50;;;5.70;99.90;;;;;;4388387;32;20506;-61
2022/01/31 08:14:48;;;;;;;280.63;267.83;;;5.60;99.90;;;;;;4386976;32;20254;-65
2022/01/31 08:17:24;;;;;;;254.13;241.87;;;5.70;99.90;;;;;;4391690;32;20173;-61
2022/01/31 08:20:03;;;;;;;251.40;239.50;;;5.70;99.90;;;;;;4395216;32;20200;-62
2022/01/31 08:22:33;;;;;;;258.00;245.40;;;5.80;99.90;;;;;;4384848;32;20143;-61
2022/01/31 08:25:00;;;;;;;285.17;271.23;;;5.70;99.90;;;;;;4395680;32;20156;-61
2022/01/31 08:27:29;;;;;;;281.00;267.13;;;5.70;99.90;;;;;;4380643;32;20222;-60
2022/01/31 08:30:22;;;;;;;268.37;255.23;;;5.70;99.90;;;;;;4379888;32;20582;-61
2022/01/31 08:33:25;;;;;;;256.40;244.13;;;5.70;99.90;;;;;;4391244;32;20182;-61
2022/01/31 08:35:55;;;;;;;267.77;255.17;;;5.60;99.90;;;;;;4395337;32;20599;-61
2022/01/31 08:38:40;;;;;;;272.70;257.77;;;5.60;99.90;;;;;;4389066;32;20171;-61
2022/01/31 08:41:10;;;;;;;264.47;251.57;;;5.60;99.90;;;;;;4392322;32;20218;-61
2022/01/31 08:43:54;;;;;;;255.17;242.00;;;5.60;99.90;;;;;;4379732;32;20152;-62
2022/01/31 08:46:35;;;;;;;245.63;232.07;;;5.50;99.90;;;;;;4392131;32;20482;-66
2022/01/31 08:49:15;;;;;;;272.77;258.97;;;5.60;99.90;;;;;;4399629;32;20197;-61
2022/01/31 08:51:47;;;;;;;237.93;225.87;;;5.70;99.90;;;;;;4392820;32;20141;-64
2022/01/31 08:54:24;;;;;;;252.57;238.47;;;5.70;99.90;;;;;;4395602;32;20157;-63
2022/01/31 08:56:58;;;;;;;286.03;270.83;;;5.70;99.90;;;;;;4386808;32;20202;-63
2022/01/31 08:59:28;;;;;;;331.30;313.50;;;5.80;99.90;;;;;;4394345;32;20507;-64
2022/01/31 09:02:05;;;;;;;257.07;243.43;;;5.80;99.90;;;;;;4392671;32;20584;-64
2022/01/31 09:04:47;;;;;;;267.50;254.53;;;5.80;99.90;;;;;;4395669;32;20268;-63
2022/01/31 09:07:28;;;;;;;259.83;246.70;;;5.70;99.90;;;;;;4406541;32;20148;-65
2022/01/31 09:10:05;;;;;;;255.87;242.07;;;5.70;99.90;;;;;;4408203;32;20167;-63
2022/01/31 09:15:24;;;;;;;245.23;232.27;;;5.70;99.90;;;;;;4400320;32;20493;-64
2022/01/31 09:17:56;;;;;;;271.70;256.93;;;5.60;99.90;;;;;;4406054;32;20241;-63
2022/01/31 09:20:26;;;;;;;310.97;294.93;;;5.70;99.90;;;;;;4400217;32;20204;-66
2022/01/31 09:23:04;;;;;;;252.23;239.57;;;5.70;99.90;;;;;;4403153;32;20198;-62
2022/01/31 09:25:33;;;;;;;223.30;209.00;;;5.70;99.90;;;;;;4406186;32;20201;-64
2022/01/31 09:28:04;;;;;;;171.27;160.43;;;5.70;99.90;;;;;;4405647;32;20213;-65
2022/01/31 09:30:36;;;;;;;139.83;130.90;;;5.70;99.90;;;;;;4408796;32;20201;-65
2022/01/31 09:33:13;;;;;;;136.07;127.60;;;5.60;99.90;;;;;;4399657;32;20140;-65
2022/01/31 09:35:51;;;;;;;129.77;121.50;;;5.70;99.90;;;;;;4402356;32;20561;-63
2022/01/31 09:38:28;;;;;;;112.80;105.77;;;5.60;99.90;;;;;;4400781;32;20544;-65
2022/01/31 09:40:58;;;;;;;119.53;111.77;;;5.80;99.90;;;;;;4404502;32;20201;-63
2022/01/31 09:46:44;;;;;;;130.03;120.23;;;5.80;99.90;;;;;;4359237;32;20153;-65
2022/01/31 09:49:19;;;;;;;137.37;126.93;;;5.80;99.90;;;;;;4357592;32;20328;-64
2022/01/31 09:51:55;;;;;;;140.80;131.13;;;5.70;99.90;;;;;;4346350;33;20179;-61
2022/01/31 09:54:38;;;;;;;141.50;131.57;;;5.70;99.90;;;;;;4355112;32;20175;-65
2022/01/31 09:57:06;;;;;;;147.30;137.17;;;5.80;99.90;;;;;;4357742;32;20231;-64
2022/01/31 10:02:50;;;;;;;;;;;;;;;;;;;;;
2022/01/31 10:05:31;;;;;;;137.13;126.17;;;6.00;99.90;;;;;;4357961;32;20511;-64
2022/01/31 10:08:24;;;;;;;143.93;133.40;;;5.90;99.90;;;;;;4357885;32;20493;-64
2022/01/31 10:11:11;;;;;;;133.30;122.67;;;5.90;99.90;;;;;;4356675;32;20540;-66
2022/01/31 10:16:45;;;;;;;152.70;141.70;;;6.00;99.90;;;;;;4358538;32;20244;-63
2022/01/31 10:19:16;;;;;;;140.73;130.57;;;5.90;99.90;;;;;;4356920;33;20161;-62
2022/01/31 10:22:20;;;;;;;139.47;130.27;;;5.90;99.90;;;;;;4358865;32;20160;-62
2022/01/31 10:25:00;;;;;;;164.37;152.80;;;6.10;99.90;;;;;;4343640;33;20214;-63
2022/01/31 10:27:40;;;;;;;156.17;145.83;;;6.00;99.90;;;;;;4340413;33;20187;-64
2022/01/31 10:30:36;;;;;;;146.03;137.03;;;6.10;99.90;;;;;;4343823;33;20232;-64
2022/01/31 10:33:06;;;;;;;140.40;131.10;;;6.10;99.90;;;;;;4327754;33;20256;-65
2022/01/31 10:35:50;;;;;;;141.87;132.57;;;6.10;99.90;;;;;;4343025;32;20153;-66
2022/01/31 10:38:33;;;;;;;154.47;144.63;;;6.00;99.90;;;;;;4342914;33;20209;-63
2022/01/31 10:54:03;;;;;;;159.10;148.60;;;5.80;99.90;;;;;;4230095;34;20152;-62
2022/01/31 10:56:59;;;;;;;156.73;147.60;;;5.70;99.90;;;;;;4227749;34;20202;-63
2022/01/31 10:59:39;;;;;;;148.67;138.43;;;5.70;99.90;;;;;;4246007;33;20514;-66
2022/01/31 11:05:22;;;;;;;164.67;154.07;;;5.60;99.90;;;;;;4258398;33;20577;-65
2022/01/31 11:08:28;;;;;;;151.13;141.20;;;5.60;99.90;;;;;;4268702;33;20698;-62
2022/01/31 11:11:09;;;;;;;156.53;146.47;;;5.60;99.90;;;;;;4268371;33;20162;-64
2022/01/31 11:14:01;;;;;;;262.53;244.43;;;5.60;99.90;;;;;;4270263;33;20171;-63
2022/01/31 11:16:47;;;;;;;173.43;162.57;;;5.70;99.90;;;;;;4266729;33;20226;-63
2022/01/31 11:19:35;;;;;;;165.80;155.67;;;5.60;99.90;;;;;;4270350;33;20159;-66
2022/01/31 11:22:10;;;;;;;172.93;161.40;;;5.60;99.90;;;;;;4270239;33;20214;-64
2022/01/31 11:24:55;;;;;;;186.40;174.13;;;5.70;99.90;;;;;;4293976;33;20166;-64
2022/01/31 11:27:24;;;;;;;181.47;170.57;;;5.70;99.90;;;;;;4330789;33;20165;-64
2022/01/31 11:29:58;;;;;;;185.03;173.73;;;5.70;99.90;;;;;;4361196;32;20228;-62
2022/01/31 11:32:29;;;;;;;220.37;206.37;;;5.70;99.90;;;;;;4378435;32;20163;-64
2022/01/31 11:35:01;;;;;;;193.60;181.60;;;5.70;99.90;;;;;;4381677;32;20186;-64
2022/01/31 11:37:33;;;;;;;195.63;183.73;;;5.70;99.90;;;;;;4379458;32;20467;-65
2022/01/31 11:40:07;;;;;;;188.80;177.33;;;5.70;99.90;;;;;;4389565;32;20452;-65
2022/01/31 11:42:38;;;;;;;240.10;226.10;;;5.70;99.90;;;;;;4387665;32;20152;-64
2022/01/31 11:45:13;;;;;;;171.93;161.73;;;5.80;99.90;;;;;;4378064;32;20175;-62
2022/01/31 11:47:53;;;;;;;205.90;193.83;;;5.80;99.90;;;;;;4385583;32;20634;-66
2022/01/31 11:50:29;;;;;;;190.97;179.50;;;5.80;99.90;;;;;;4386689;32;20522;-66
2022/01/31 11:53:15;;;;;;;150.00;139.63;;;5.70;99.90;;;;;;4381685;32;20163;-66
2022/01/31 11:55:42;;;;;;;122.13;113.20;;;5.70;99.90;;;;;;4384264;32;20191;-63
2022/01/31 11:58:17;;;;;;;122.10;113.83;;;5.70;99.90;;;;;;4390122;32;20498;-64
2022/01/31 12:00:48;;;;;;;124.83;115.70;;;5.70;99.90;;;;;;4395145;32;20152;-65
2022/01/31 12:03:24;;;;;;;128.10;118.67;;;5.80;99.90;;;;;;4403544;32;20170;-64
2022/01/31 12:06:02;;;;;;;131.93;121.93;;;5.70;99.90;;;;;;4392633;32;20337;-65
2022/01/31 12:08:46;;;;;;;136.23;125.83;;;5.80;99.90;;;;;;4393390;32;20221;-63
2022/01/31 12:11:23;;;;;;;123.03;113.63;;;5.80;99.90;;;;;;4391103;32;20571;-68
2022/01/31 12:13:59;;;;;;;128.47;118.73;;;5.90;99.90;;;;;;4398000;32;20191;-63
2022/01/31 12:16:51;;;;;;;127.37;118.63;;;5.80;99.90;;;;;;4396561;32;20575;-64
2022/01/31 12:19:47;;;;;;;119.00;110.57;;;5.90;99.90;;;;;;4404767;32;20144;-64
2022/01/31 12:22:48;;;;;;;118.13;108.30;;;5.90;99.90;;;;;;4404802;32;20166;-64
2022/01/31 12:25:30;;;;;;;118.83;110.10;;;5.90;99.90;;;;;;4395860;32;20159;-63
2022/01/31 12:28:00;;;;;;;114.90;105.77;;;5.90;99.90;;;;;;4391226;32;20476;-64
2022/01/31 12:30:41;;;;;;;133.83;124.43;;;5.90;99.90;;;;;;4394751;32;20605;-66
2022/01/31 12:33:43;;;;;;;119.83;110.03;;;5.90;99.90;;;;;;4401049;32;20599;-66
2022/01/31 12:36:45;;;;;;;111.77;102.80;;;6.00;99.90;;;;;;4395743;32;20150;-64
2022/01/31 12:39:58;;;;;;;122.03;112.33;;;6.00;99.90;;;;;;4393673;32;20622;-64
2022/01/31 12:45:43;;;;;;;110.83;101.40;;;5.90;99.90;;;;;;4328556;33;20172;-64
2022/01/31 12:48:20;;;;;;;123.30;111.07;;;6.00;99.90;;;;;;4329042;33;20569;-63
2022/01/31 12:51:15;;;;;;;122.73;113.63;;;6.00;99.90;;;;;;4332934;33;20590;-64
2022/01/31 12:53:56;;;;;;;115.27;105.60;;;6.00;99.90;;;;;;4337345;33;20190;-67
2022/01/31 12:56:35;;;;;;;120.53;110.57;;;5.90;99.90;;;;;;4331062;33;20191;-63
2022/01/31 12:59:20;;;;;;;115.63;106.13;;;6.00;99.90;;;;;;4334560;33;20189;-66
2022/01/31 13:01:49;;;;;;;111.77;102.37;;;6.00;99.90;;;;;;4335280;33;20567;-64
2022/01/31 13:04:50;;;;;;;114.57;104.73;;;6.00;99.90;;;;;;4342575;33;20188;-63
2022/01/31 13:07:52;;;;;;;119.30;109.90;;;6.00;99.90;;;;;;4344174;33;20161;-65
2022/01/31 13:11:00;;;;;;;139.70;127.93;;;6.00;99.90;;;;;;4273145;33;20185;-63
2022/01/31 13:13:52;;;;;;;106.77;97.10;;;6.00;99.90;;;;;;4282241;33;20159;-63
2022/01/31 13:16:27;;;;;;;108.20;99.73;;;6.00;99.90;;;;;;4284503;33;20163;-63
2022/01/31 13:18:58;;;;;;;120.20;111.47;;;6.00;99.90;;;;;;4309585;32;20156;-64
2022/01/31 13:21:32;;;;;;;123.73;113.93;;;6.00;99.90;;;;;;4364612;32;20239;-63
2022/01/31 13:23:59;;;;;;;124.57;115.17;;;6.10;99.90;;;;;;4357453;33;20161;-63
2022/01/31 13:26:31;;;;;;;118.43;108.63;;;6.10;99.90;;;;;;4358741;33;20183;-63
2022/01/31 13:29:03;;;;;;;122.77;114.67;;;6.10;99.90;;;;;;4358698;32;20168;-65
2022/01/31 13:35:08;;;;;;;106.43;98.47;;;6.30;99.90;;;;;;4350109;33;20153;-63
2022/01/31 13:37:47;;;;;;;113.20;104.67;;;6.40;99.90;;;;;;4359072;33;20241;-63
2022/01/31 13:40:29;;;;;;;114.47;107.00;;;6.40;99.90;;;;;;4359544;32;20283;-63
2022/01/31 13:43:10;;;;;;;109.30;100.47;;;6.50;99.90;;;;;;4362618;32;20172;-63